createdAt,value
2018-07-23T00:01:11.792Z,101164.86
2018-07-23T00:03:42.669Z,101158.58
2018-07-23T00:06:15.757Z,101156.90
2018-07-23T00:08:46.951Z,101156.63
2018-07-23T00:11:18.035Z,101161.56
2018-07-23T00:13:50.881Z,101161.80
2018-07-23T00:16:21.226Z,101163.27
2018-07-23T00:18:51.445Z,101174.10
2018-07-23T00:21:22.027Z,101161.67
2018-07-23T00:23:53.475Z,101166.77
2018-07-23T00:26:24.713Z,101167.61
2018-07-23T00:29:02.315Z,101167.64
2018-07-23T00:31:38.612Z,101172.34
2018-07-23T00:34:09.935Z,101176.64
2018-07-23T00:36:42.105Z,101169.33
2018-07-23T00:39:12.423Z,101179.81
2018-07-23T00:41:43.717Z,101179.70
2018-07-23T00:44:15.538Z,101178.49
2018-07-23T00:46:59.142Z,101173.91
2018-07-23T00:49:29.784Z,101169.95
2018-07-23T00:52:00.603Z,101176.57
2018-07-23T00:54:32.667Z,101178.47
2018-07-23T00:57:11.114Z,101180.67
2018-07-23T00:59:42.307Z,101178.48
2018-07-23T01:02:14.017Z,101177.73
2018-07-23T01:04:46.840Z,101179.95
2018-07-23T01:07:20.325Z,101178.89
2018-07-23T01:09:53.739Z,101185.05
2018-07-23T01:12:33.760Z,101186.94
2018-07-23T01:15:08.452Z,101185.45
2018-07-23T01:17:39.801Z,101182.73
2018-07-23T01:20:11.776Z,101181.51
2018-07-23T01:22:44.113Z,101177.03
2018-07-23T01:25:15.322Z,101184.34
2018-07-23T01:27:48.444Z,101182.66
2018-07-23T01:30:19.572Z,101178.95
2018-07-23T01:32:52.967Z,101179.55
2018-07-23T01:35:27.643Z,101183.44
2018-07-23T01:37:59.502Z,101184.39
2018-07-23T01:40:29.909Z,101183.11
2018-07-23T01:43:00.569Z,101183.75
2018-07-23T01:45:31.584Z,101184.31
2018-07-23T01:48:02.805Z,101184.12
2018-07-23T01:50:42.681Z,101187.36
2018-07-23T01:53:15.449Z,101180.56
2018-07-23T01:55:48.925Z,101182.33
2018-07-23T01:58:20.745Z,101182.45
2018-07-23T02:00:52.613Z,101177.23
2018-07-23T02:03:24.410Z,101185.60
2018-07-23T02:05:56.246Z,101188.95
2018-07-23T02:08:29.190Z,101190.00
2018-07-23T02:11:07.687Z,101195.64
2018-07-23T02:13:41.858Z,101191.03
2018-07-23T02:16:13.325Z,101193.31
2018-07-23T02:18:48.252Z,101195.51
2018-07-23T02:21:19.805Z,101190.39
2018-07-23T02:23:50.518Z,101199.06
2018-07-23T02:26:22.602Z,101195.09
2018-07-23T02:28:54.194Z,101202.11
2018-07-23T02:31:25.225Z,101204.18
2018-07-23T02:33:57.039Z,101197.08
2018-07-23T02:36:29.247Z,101197.48
2018-07-23T02:39:00.256Z,101202.69
2018-07-23T02:41:33.432Z,101200.86
2018-07-23T02:44:04.490Z,101206.76
2018-07-23T02:46:36.393Z,101215.03
2018-07-23T02:49:08.371Z,101208.05
2018-07-23T02:51:38.648Z,101205.82
2018-07-23T02:54:10.079Z,101211.07
2018-07-23T02:56:40.902Z,101209.30
2018-07-23T02:59:11.986Z,101208.97
2018-07-23T03:01:43.851Z,101203.16
2018-07-23T03:04:14.965Z,101203.67
2018-07-23T03:06:46.211Z,101205.92
2018-07-23T03:09:18.113Z,101207.94
2018-07-23T03:11:49.912Z,101209.20
2018-07-23T03:14:22.505Z,101206.11
2018-07-23T03:16:53.697Z,101202.87
2018-07-23T03:19:29.966Z,101212.94
2018-07-23T03:22:06.998Z,101214.77
2018-07-23T03:24:41.375Z,101209.19
2018-07-23T03:27:12.293Z,101209.81
2018-07-23T03:29:44.418Z,101215.27
2018-07-23T03:32:17.699Z,101215.79
2018-07-23T03:34:48.559Z,101220.59
2018-07-23T03:37:20.380Z,101218.50
2018-07-23T03:39:51.704Z,101221.44
2018-07-23T03:42:23.478Z,101223.67
2018-07-23T03:44:56.433Z,101217.74
2018-07-23T03:47:27.774Z,101226.37
2018-07-23T03:50:01.082Z,101231.70
2018-07-23T03:52:46.944Z,101231.19
2018-07-23T03:55:17.713Z,101236.58
2018-07-23T03:57:49.812Z,101238.77
2018-07-23T04:00:21.964Z,101234.70
2018-07-23T04:02:53.497Z,101235.11
2018-07-23T04:05:32.036Z,101236.41
2018-07-23T04:08:05.384Z,101239.81
2018-07-23T04:10:37.843Z,101245.23
2018-07-23T04:13:08.881Z,101241.93
2018-07-23T04:15:40.304Z,101236.92
2018-07-23T04:18:13.084Z,101242.51
2018-07-23T04:20:47.331Z,101245.34
2018-07-23T04:23:19.780Z,101242.00
2018-07-23T04:25:50.544Z,101244.91
2018-07-23T04:28:20.994Z,101243.44
2018-07-23T04:30:51.942Z,101244.25
2018-07-23T04:33:27.382Z,101241.91
2018-07-23T04:36:01.647Z,101242.85
2018-07-23T04:38:33.941Z,101242.78
2018-07-23T04:41:07.119Z,101245.88
2018-07-23T04:43:37.644Z,101242.80
2018-07-23T04:46:11.007Z,101252.57
2018-07-23T04:48:42.453Z,101249.38
2018-07-23T04:51:15.165Z,101253.02
2018-07-23T04:53:48.849Z,101257.59
2018-07-23T04:56:21.762Z,101252.23
2018-07-23T04:58:53.051Z,101219.67
2018-07-23T05:01:23.970Z,101258.18
2018-07-23T05:03:56.258Z,101262.91
2018-07-23T05:06:27.960Z,101260.80
2018-07-23T05:08:58.985Z,101262.55
2018-07-23T05:11:32.157Z,101262.48
2018-07-23T05:14:06.721Z,101266.69
2018-07-23T05:16:41.628Z,101261.84
2018-07-23T05:19:12.587Z,101261.68
2018-07-23T05:21:44.524Z,101264.09
2018-07-23T05:24:17.600Z,101261.66
2018-07-23T05:26:48.613Z,101262.52
2018-07-23T05:29:19.706Z,101257.63
2018-07-23T05:31:52.092Z,101267.12
2018-07-23T05:34:35.278Z,101259.22
2018-07-23T05:37:05.721Z,101271.66
2018-07-23T05:39:47.991Z,101268.94
2018-07-23T05:42:19.704Z,101268.29
2018-07-23T05:44:51.112Z,101273.47
2018-07-23T05:47:21.802Z,101268.73
2018-07-23T05:49:55.141Z,101265.25
2018-07-23T05:52:26.869Z,101269.22
2018-07-23T05:54:57.313Z,101273.28
2018-07-23T05:57:29.905Z,101275.98
2018-07-23T06:00:05.245Z,101274.05
2018-07-23T06:02:35.579Z,101276.19
2018-07-23T06:05:06.541Z,101278.27
2018-07-23T06:07:38.721Z,101275.58
2018-07-23T06:10:11.644Z,101274.94
2018-07-23T06:12:51.994Z,101277.48
2018-07-23T06:15:25.964Z,101272.30
2018-07-23T06:17:56.922Z,101276.30
2018-07-23T06:20:28.089Z,101275.42
2018-07-23T06:23:01.682Z,101164.94
2018-07-23T06:25:33.573Z,101269.83
2018-07-23T06:28:05.832Z,101270.78
2018-07-23T06:30:37.105Z,101279.92
2018-07-23T06:33:08.629Z,101274.59
2018-07-23T06:35:40.734Z,101275.80
2018-07-23T06:38:11.888Z,101283.52
2018-07-23T06:40:43.425Z,101281.19
2018-07-23T06:43:15.351Z,101288.05
2018-07-23T06:45:45.845Z,101286.06
2018-07-23T06:48:17.590Z,101292.05
2018-07-23T06:50:49.517Z,101291.73
2018-07-23T06:53:21.284Z,101293.83
2018-07-23T06:55:53.223Z,101295.04
2018-07-23T06:58:25.001Z,101291.94
2018-07-23T07:00:58.342Z,101292.53
2018-07-23T07:03:29.201Z,101295.51
2018-07-23T07:06:07.499Z,101296.11
2018-07-23T07:08:46.513Z,101293.97
2018-07-23T07:11:18.271Z,101295.38
2018-07-23T07:13:49.888Z,101294.63
2018-07-23T07:16:26.564Z,101294.25
2018-07-23T07:18:59.762Z,101301.73
2018-07-23T07:21:43.054Z,101301.37
2018-07-23T07:27:02.233Z,101300.80
2018-07-23T07:29:40.357Z,101305.88
2018-07-23T07:32:11.530Z,101302.73
2018-07-23T07:34:43.267Z,101301.22
2018-07-23T07:37:18.307Z,101302.80
2018-07-23T07:39:51.681Z,101301.50
2018-07-23T07:45:21.710Z,101296.81
2018-07-23T07:47:56.826Z,101294.00
2018-07-23T07:50:33.590Z,101288.13
2018-07-23T07:53:09.117Z,101282.14
2018-07-23T07:55:45.465Z,101289.75
2018-07-23T07:58:27.021Z,101286.79
2018-07-23T08:01:03.144Z,101286.73
2018-07-23T08:03:45.799Z,101287.41
2018-07-23T08:06:18.672Z,101287.95
2018-07-23T08:08:58.144Z,101293.70
2018-07-23T08:11:38.342Z,101285.43
2018-07-23T08:14:09.759Z,101283.23
2018-07-23T08:16:43.068Z,101288.98
2018-07-23T08:19:15.069Z,101288.30
2018-07-23T08:21:46.648Z,101292.10
2018-07-23T08:24:19.831Z,101291.53
2018-07-23T08:26:52.534Z,101296.22
2018-07-23T08:29:33.808Z,101286.02
2018-07-23T08:32:12.684Z,101296.41
2018-07-23T08:37:32.544Z,101298.98
2018-07-23T08:40:08.068Z,101296.08
2018-07-23T08:42:47.042Z,101297.39
2018-07-23T08:45:29.208Z,101291.95
2018-07-23T08:48:14.099Z,101288.70
2018-07-23T08:50:57.271Z,101292.52
2018-07-23T08:53:33.440Z,101289.61
2018-07-23T08:56:13.292Z,101289.42
2018-07-23T09:01:55.424Z,101295.13
2018-07-23T09:04:28.266Z,101293.33
2018-07-23T09:07:00.629Z,101307.86
2018-07-23T09:09:31.702Z,101298.61
2018-07-23T09:12:03.323Z,101302.23
2018-07-23T09:14:34.875Z,101301.55
2018-07-23T09:17:13.453Z,101301.84
2018-07-23T09:19:45.960Z,101268.13
2018-07-23T09:22:20.968Z,101304.17
2018-07-23T09:25:01.299Z,101304.76
2018-07-23T09:27:35.883Z,101303.95
2018-07-23T09:30:18.501Z,101304.78
2018-07-23T09:32:49.700Z,101307.84
2018-07-23T09:35:26.700Z,101299.52
2018-07-23T09:38:01.686Z,101303.36
2018-07-23T09:40:38.963Z,101302.05
2018-07-23T09:43:15.112Z,101296.70
2018-07-23T09:45:51.846Z,101301.30
2018-07-23T09:48:30.491Z,101297.14
2018-07-23T09:51:04.455Z,101302.03
2018-07-23T09:53:37.079Z,101294.82
2018-07-23T09:56:10.016Z,101300.33
2018-07-23T09:58:42.419Z,101292.00
2018-07-23T10:01:25.998Z,101303.31
2018-07-23T10:04:14.715Z,101298.73
2018-07-23T10:06:47.150Z,101295.25
2018-07-23T10:09:21.314Z,101294.25
2018-07-23T10:11:54.307Z,101294.84
2018-07-23T10:14:26.097Z,101282.69
2018-07-23T10:16:59.216Z,101285.73
2018-07-23T10:20:05.296Z,101282.27
2018-07-23T10:22:40.610Z,101282.89
2018-07-23T10:25:14.789Z,101291.17
2018-07-23T10:27:50.416Z,101283.75
2018-07-23T10:30:29.180Z,101286.38
2018-07-23T10:33:06.539Z,101283.95
2018-07-23T10:35:39.299Z,101276.52
2018-07-23T10:38:11.851Z,101281.31
2018-07-23T10:40:43.747Z,101285.09
2018-07-23T10:43:16.043Z,101274.61
2018-07-23T10:45:52.378Z,101279.60
2018-07-23T10:48:27.236Z,101279.30
2018-07-23T10:50:59.387Z,101282.66
2018-07-23T10:53:30.847Z,101272.73
2018-07-23T10:56:02.745Z,101278.00
2018-07-23T10:58:36.420Z,101276.61
2018-07-23T11:01:07.648Z,101273.55
2018-07-23T11:03:47.642Z,101276.34
2018-07-23T11:06:19.568Z,101274.66
2018-07-23T11:08:59.415Z,101273.53
2018-07-23T11:11:39.511Z,101276.88
2018-07-23T11:14:14.239Z,101271.09
2018-07-23T11:16:47.562Z,101273.92
2018-07-23T11:19:19.146Z,101274.75
2018-07-23T11:21:56.276Z,101273.75
2018-07-23T11:24:27.919Z,101261.23
2018-07-23T11:27:15.147Z,101267.48
2018-07-23T11:29:55.645Z,101270.53
2018-07-23T11:32:40.272Z,101261.48
2018-07-23T11:35:14.574Z,101271.53
2018-07-23T11:37:50.421Z,101267.53
2018-07-23T11:40:22.429Z,101268.34
2018-07-23T11:43:02.134Z,101264.54
2018-07-23T11:49:19.388Z,101270.40
2018-07-23T11:51:51.504Z,101266.88
2018-07-23T11:54:24.412Z,101264.06
2018-07-23T11:56:58.181Z,101259.06
2018-07-23T11:59:33.305Z,101265.54
2018-07-23T12:02:05.005Z,101260.45
2018-07-23T12:04:48.752Z,101263.54
2018-07-23T12:07:25.564Z,101258.52
2018-07-23T12:09:58.970Z,101251.45
2018-07-23T12:12:30.901Z,101259.67
2018-07-23T12:15:07.471Z,101256.42
2018-07-23T12:17:43.112Z,101260.45
2018-07-23T12:20:24.491Z,101256.61
2018-07-23T12:23:01.730Z,101254.88
2018-07-23T12:25:34.160Z,101246.95
2018-07-23T12:28:13.045Z,101249.76
2018-07-23T12:30:49.044Z,101243.11
2018-07-23T12:33:20.477Z,101244.40
2018-07-23T12:35:56.396Z,101243.73
2018-07-23T12:38:28.777Z,101250.16
2018-07-23T12:41:01.145Z,101244.03
2018-07-23T12:43:36.552Z,101241.02
2018-07-23T12:46:10.562Z,101248.13
2018-07-23T12:48:47.624Z,101246.12
2018-07-23T12:51:21.572Z,101238.03
2018-07-23T12:53:55.206Z,101243.42
2018-07-23T12:59:17.208Z,101242.75
2018-07-23T13:01:50.649Z,101234.26
2018-07-23T13:04:24.523Z,101230.42
2018-07-23T13:06:57.219Z,101223.73
2018-07-23T13:09:30.701Z,101228.77
2018-07-23T13:12:04.613Z,101225.88
2018-07-23T13:14:42.462Z,101219.56
2018-07-23T13:17:18.514Z,101220.89
2018-07-23T13:19:50.406Z,101227.50
2018-07-23T13:22:22.623Z,101225.58
2018-07-23T13:24:53.522Z,101222.40
2018-07-23T13:27:26.836Z,101223.20
2018-07-23T13:30:00.457Z,101226.22
2018-07-23T13:32:36.486Z,101221.50
2018-07-23T13:35:07.927Z,101222.45
2018-07-23T13:37:40.442Z,101216.61
2018-07-23T13:40:15.232Z,101220.83
2018-07-23T13:42:49.618Z,101217.93
2018-07-23T13:45:21.512Z,101229.41
2018-07-23T13:48:04.477Z,101223.89
2018-07-23T13:50:37.011Z,101217.52
2018-07-23T13:53:08.671Z,101209.92
2018-07-23T13:55:42.095Z,101210.97
2018-07-23T13:58:14.205Z,101200.62
2018-07-23T14:00:45.369Z,101202.04
2018-07-23T14:03:25.609Z,101200.60
2018-07-23T14:06:01.999Z,101198.37
2018-07-23T14:08:39.722Z,101202.41
2018-07-23T14:11:14.368Z,101198.81
2018-07-23T14:13:51.359Z,101200.15
2018-07-23T14:16:25.257Z,101197.77
2018-07-23T14:19:00.353Z,101189.25
2018-07-23T14:21:41.467Z,101189.91
2018-07-23T14:24:13.259Z,101188.44
2018-07-23T14:26:45.926Z,101192.09
2018-07-23T14:29:19.807Z,101192.42
2018-07-23T14:31:53.569Z,101191.25
2018-07-23T14:34:26.309Z,101190.03
2018-07-23T14:36:59.372Z,101192.48
2018-07-23T14:39:30.614Z,101189.67
2018-07-23T14:42:01.024Z,101182.62
2018-07-23T14:44:39.187Z,101178.39
2018-07-23T14:47:09.616Z,101181.55
2018-07-23T14:49:43.605Z,101179.58
2018-07-23T14:52:16.567Z,101173.56
2018-07-23T14:54:49.213Z,101171.93
2018-07-23T14:57:23.962Z,101164.91
2018-07-23T15:00:04.678Z,101164.36
2018-07-23T15:02:35.881Z,101164.05
2018-07-23T15:05:08.779Z,101165.16
2018-07-23T15:07:51.686Z,101159.57
2018-07-23T15:13:28.028Z,101157.25
2018-07-23T15:16:03.906Z,101157.12
2018-07-23T15:18:35.856Z,101154.83
2018-07-23T15:21:08.353Z,101152.34
2018-07-23T15:23:40.778Z,101151.29
2018-07-23T15:26:12.906Z,101156.67
2018-07-23T15:28:48.631Z,101149.06
2018-07-23T15:31:22.748Z,101151.63
2018-07-23T15:33:54.027Z,101150.31
2018-07-23T15:39:17.284Z,101146.84
2018-07-23T15:44:23.173Z,101147.01
2018-07-23T15:47:13.699Z,101138.56
2018-07-23T15:49:53.437Z,101144.11
2018-07-23T15:52:31.779Z,101139.75
2018-07-23T15:55:06.380Z,101125.70
2018-07-23T15:57:41.674Z,101137.22
2018-07-23T16:00:21.224Z,101134.70
2018-07-23T16:02:53.379Z,101136.95
2018-07-23T16:05:28.978Z,101129.25
2018-07-23T16:07:59.624Z,101134.87
2018-07-23T16:10:32.332Z,101127.91
2018-07-23T16:13:05.768Z,101132.32
2018-07-23T16:15:39.177Z,101131.16
2018-07-23T16:18:11.574Z,101122.02
2018-07-23T16:20:43.649Z,101127.03
2018-07-23T16:23:19.438Z,101125.20
2018-07-23T16:25:52.617Z,101125.50
2018-07-23T16:28:24.995Z,101117.71
2018-07-23T16:31:00.459Z,101125.20
2018-07-23T16:33:32.476Z,101128.20
2018-07-23T16:36:04.373Z,101129.61
2018-07-23T16:38:38.529Z,101124.87
2018-07-23T16:41:12.194Z,101127.62
2018-07-23T16:43:46.686Z,101119.07
2018-07-23T16:46:19.299Z,101124.55
2018-07-23T16:48:50.609Z,101119.59
2018-07-23T16:51:25.494Z,101121.86
2018-07-23T16:53:56.483Z,101122.20
2018-07-23T16:56:28.998Z,101120.77
2018-07-23T16:59:05.691Z,101119.98
2018-07-23T17:01:38.554Z,101115.82
2018-07-23T17:04:09.020Z,101116.07
2018-07-23T17:06:44.796Z,101111.41
2018-07-23T17:09:16.790Z,101112.55
2018-07-23T17:11:48.011Z,101113.39
2018-07-23T17:14:22.443Z,101111.16
2018-07-23T17:16:56.281Z,101109.80
2018-07-23T17:19:31.711Z,101114.19
2018-07-23T17:24:51.704Z,101109.70
2018-07-23T17:27:22.195Z,101112.80
2018-07-23T17:29:52.814Z,101119.14
2018-07-23T17:32:27.656Z,101115.30
2018-07-23T17:34:59.668Z,101115.28
2018-07-23T17:37:33.502Z,101110.86
2018-07-23T17:40:08.894Z,101107.84
2018-07-23T17:42:42.978Z,101113.91
2018-07-23T17:45:17.549Z,101117.20
2018-07-23T17:47:48.887Z,101120.22
2018-07-23T17:50:21.568Z,101111.39
2018-07-23T17:52:51.970Z,101106.43
2018-07-23T17:55:24.203Z,101117.39
2018-07-23T17:57:55.292Z,101110.72
2018-07-23T18:00:48.244Z,101113.60
2018-07-23T18:03:20.670Z,101108.62
2018-07-23T18:05:52.999Z,101111.37
2018-07-23T18:08:24.002Z,101105.36
2018-07-23T18:10:55.454Z,101112.33
2018-07-23T18:13:27.900Z,101112.02
2018-07-23T18:15:59.329Z,101113.58
2018-07-23T18:18:30.491Z,101110.48
2018-07-23T18:21:04.272Z,101109.45
2018-07-23T18:23:36.947Z,101111.92
2018-07-23T18:26:15.703Z,101110.69
2018-07-23T18:31:27.472Z,101115.02
2018-07-23T18:33:59.370Z,101110.50
2018-07-23T18:36:30.687Z,101108.94
2018-07-23T18:39:04.522Z,101108.42
2018-07-23T18:41:37.786Z,101111.69
2018-07-23T18:44:20.311Z,101109.45
2018-07-23T18:46:53.372Z,101114.77
2018-07-23T18:49:59.721Z,101110.92
2018-07-23T18:52:33.951Z,101112.84
2018-07-23T18:55:04.741Z,101103.88
2018-07-23T18:57:38.520Z,101110.50
2018-07-23T19:00:27.083Z,101105.00
2018-07-23T19:02:58.324Z,101103.01
2018-07-23T19:05:32.074Z,101101.34
2018-07-23T19:08:12.613Z,101105.77
2018-07-23T19:10:43.631Z,101115.94
2018-07-23T19:13:17.271Z,101108.48
2018-07-23T19:15:55.081Z,101113.15
2018-07-23T19:18:31.120Z,101115.86
2018-07-23T19:21:07.892Z,101113.94
2018-07-23T19:23:41.954Z,101115.25
2018-07-23T19:26:20.828Z,101115.82
2018-07-23T19:28:52.195Z,101123.12
2018-07-23T19:31:34.628Z,101126.33
2018-07-23T19:34:05.985Z,101125.45
2018-07-23T19:36:37.149Z,101123.70
2018-07-23T19:39:13.436Z,101125.80
2018-07-23T19:41:44.512Z,101126.39
2018-07-23T19:44:21.482Z,101130.35
2018-07-23T19:46:57.462Z,101130.66
2018-07-23T19:49:30.799Z,101132.98
2018-07-23T19:52:03.043Z,101098.88
2018-07-23T19:54:42.389Z,101136.20
2018-07-23T19:57:17.227Z,101140.69
2018-07-23T19:59:51.111Z,101097.63
2018-07-23T20:02:27.474Z,101134.47
2018-07-23T20:05:04.034Z,101130.29
2018-07-23T20:07:38.581Z,101132.59
2018-07-23T20:10:12.532Z,101136.44
2018-07-23T20:12:43.572Z,101134.21
2018-07-23T20:15:18.129Z,101132.09
2018-07-23T20:17:51.201Z,101134.92
2018-07-23T20:20:31.412Z,101133.03
2018-07-23T20:23:17.431Z,101127.47
2018-07-23T20:25:51.523Z,101133.08
2018-07-23T20:28:26.128Z,101127.23
2018-07-23T20:31:02.359Z,101126.02
2018-07-23T20:33:36.534Z,101131.14
2018-07-23T20:36:08.523Z,101121.73
2018-07-23T20:38:40.087Z,101137.52
2018-07-23T20:41:12.276Z,101136.06
2018-07-23T20:43:47.391Z,101135.77
2018-07-23T20:46:27.489Z,101137.15
2018-07-23T20:49:04.018Z,101140.62
2018-07-23T20:51:42.983Z,101140.83
2018-07-23T20:54:22.358Z,101138.29
2018-07-23T20:56:58.026Z,101139.80
2018-07-23T20:59:35.993Z,101136.89
2018-07-23T21:02:25.497Z,101136.64
2018-07-23T21:08:02.335Z,101130.83
2018-07-23T21:10:43.132Z,101135.30
2018-07-23T21:13:51.410Z,101134.65
2018-07-23T21:16:31.877Z,101137.23
2018-07-23T21:19:10.364Z,101142.36
2018-07-23T21:21:49.405Z,101139.09
2018-07-23T21:24:28.890Z,101147.22
2018-07-23T21:27:07.616Z,101147.75
2018-07-23T21:29:46.230Z,101148.31
2018-07-23T21:32:18.322Z,101149.88
2018-07-23T21:34:56.302Z,101148.42
2018-07-23T21:37:38.881Z,101143.23
2018-07-23T21:40:12.077Z,101144.70
2018-07-23T21:42:45.792Z,101145.80
2018-07-23T21:45:23.465Z,101142.50
2018-07-23T21:47:54.760Z,101146.02
2018-07-23T21:50:28.613Z,101142.68
2018-07-23T21:53:00.763Z,101142.69
2018-07-23T21:55:31.200Z,101146.22
2018-07-23T21:58:05.331Z,101146.22
2018-07-23T22:00:39.342Z,101153.14
2018-07-23T22:03:09.694Z,101145.73
2018-07-23T22:05:40.548Z,101142.25
2018-07-23T22:08:11.297Z,101144.45
2018-07-23T22:10:48.542Z,101142.06
2018-07-23T22:13:18.976Z,101139.98
2018-07-23T22:15:49.943Z,101143.72
2018-07-23T22:18:20.966Z,101146.63
2018-07-23T22:20:53.130Z,101150.12
2018-07-23T22:23:26.536Z,101140.40
2018-07-23T22:25:57.190Z,101145.95
2018-07-23T22:28:28.388Z,101154.30
2018-07-23T22:30:59.200Z,101149.06
2018-07-23T22:33:31.635Z,101156.20
2018-07-23T22:36:02.217Z,101149.27
2018-07-23T22:38:32.976Z,101115.06
2018-07-23T22:41:05.418Z,101148.88
2018-07-23T22:43:42.375Z,101150.00
2018-07-23T22:46:15.080Z,101155.70
2018-07-23T22:48:46.659Z,101148.33
2018-07-23T22:51:18.564Z,101151.98
2018-07-23T22:53:50.271Z,101151.83
2018-07-23T22:56:21.528Z,101153.51
2018-07-23T22:58:54.130Z,101147.43
2018-07-23T23:01:24.872Z,101141.34
2018-07-23T23:03:55.880Z,101141.05
2018-07-23T23:06:29.242Z,101136.13
2018-07-23T23:09:01.459Z,101140.88
2018-07-23T23:11:33.808Z,101142.45
2018-07-23T23:14:05.640Z,101141.50
2018-07-23T23:16:36.739Z,101142.73
2018-07-23T23:19:10.661Z,101145.23
2018-07-23T23:21:40.890Z,101104.95
2018-07-23T23:24:13.335Z,101147.12
2018-07-23T23:26:45.990Z,101143.91
2018-07-23T23:29:17.096Z,101142.59
2018-07-23T23:31:47.819Z,101140.81
2018-07-23T23:34:19.214Z,101142.56
2018-07-23T23:36:49.445Z,101137.22
2018-07-23T23:39:20.776Z,101142.03
2018-07-23T23:41:53.030Z,101142.67
2018-07-23T23:44:23.448Z,101143.39
2018-07-23T23:46:54.019Z,100839.45
2018-07-23T23:49:24.731Z,101140.98
2018-07-23T23:51:55.136Z,101134.69
2018-07-23T23:54:25.634Z,101135.48
2018-07-23T23:56:56.251Z,101131.50
2018-07-23T23:59:26.738Z,101132.22
